D/T METAR WX W/DIR W/SPE G/SPE TEMP DEWP
19/03/19 03:20 EGPA 190320Z AUTO 18006KT 9999 BKN028/// 06/05 Q1016 S (180°) 6.9mph 6°C 5°C
19/03/19 02:50 EGPA 190250Z AUTO 21006KT 9999 BKN027/// 06/05 Q1016 SSW (210°) 6.9mph 6°C 5°C
19/03/19 02:20 EGPA 190220Z AUTO 21008KT 9999 BKN027/// 06/05 Q1016 SSW (210°) 9.2mph 6°C 5°C
19/03/19 01:50 EGPA 190150Z AUTO 21005KT 9999 FEW029/// 05/04 Q1016 SSW (210°) 5.8mph 5°C 4°C
19/03/19 01:20 EGPA 190120Z AUTO 21006KT 9999 BKN029/// 05/04 Q1016 SSW (210°) 6.9mph 5°C 4°C
19/03/19 00:50 EGPA 190050Z AUTO 21008KT 9999 NCD 05/04 Q1017 SSW (210°) 9.2mph 5°C 4°C
19/03/19 00:20 EGPA 190020Z AUTO 19006KT 9999 FEW035/// 05/04 Q1017 S (190°) 6.9mph 5°C 4°C
18/03/19 23:50 EGPA 182350Z AUTO 18007KT 9999 NCD 05/04 Q1017 S (180°) 8.1mph 5°C 4°C
18/03/19 23:20 EGPA 182320Z AUTO 17007KT 9999 NCD 05/04 Q1017 S (170°) 8.1mph 5°C 4°C
18/03/19 22:50 EGPA 182250Z AUTO 18009KT 9999 NCD 05/04 Q1017 S (180°) 10.4mph 5°C 4°C
18/03/19 22:20 EGPA 182220Z AUTO 18009KT 9999 SCT039/// 05/03 Q1017 S (180°) 10.4mph 5°C 3°C
18/03/19 21:50 EGPA 182150Z AUTO 18009KT 9999 NCD 05/03 Q1017 S (180°) 10.4mph 5°C 3°C
18/03/19 21:20 EGPA 182120Z AUTO 18010KT 9999 NCD 05/02 Q1017 S (180°) 11.5mph 5°C 2°C
18/03/19 20:50 EGPA 182050Z AUTO 17007KT 9999 NCD 04/02 Q1017 S (170°) 8.1mph 4°C 2°C
18/03/19 20:20 EGPA 182020Z AUTO 17009KT 9999 NCD 05/02 Q1017 S (170°) 10.4mph 5°C 2°C
18/03/19 19:50 EGPA 181950Z AUTO 18008KT 9999 NCD ///// Q//// S (180°) 9.2mph 0°C 0°C
18/03/19 19:20 EGPA 181920Z 17008KT CAVOK 05/02 Q1017 S (170°) 9.2mph 5°C 2°C
18/03/19 18:50 EGPA 181850Z 17009KT CAVOK 05/02 Q1017 S (170°) 10.4mph 5°C 2°C
18/03/19 18:20 EGPA 181820Z 17008KT CAVOK 05/02 Q1017 S (170°) 9.2mph 5°C 2°C
18/03/19 17:50 EGPA 181750Z 16008KT CAVOK 06/03 Q1017 SSE (160°) 9.2mph 6°C 3°C
18/03/19 17:20 EGPA 181720Z 17008KT CAVOK 06/02 Q1016 S (170°) 9.2mph 6°C 2°C
18/03/19 16:20 EGPA 181620Z 17009KT 9999 FEW022 07/02 Q1016 S (170°) 10.4mph 7°C 2°C
18/03/19 15:50 EGPA 181550Z 18010KT 9999 FEW024 07/01 Q1016 S (180°) 11.5mph 7°C 1°C
18/03/19 14:50 EGPA 181450Z 18009KT 9999 FEW024 08/02 Q1016 S (180°) 10.4mph 8°C 2°C
18/03/19 14:20 EGPA 181420Z 18011KT 9999 FEW024 SCT045 08/01 Q1015 S (180°) 12.7mph 8°C 1°C
18/03/19 13:50 EGPA 181350Z 17010KT 9999 FEW024 SCT045 08/01 Q1015 S (170°) 11.5mph 8°C 1°C
18/03/19 13:20 EGPA 181320Z 18008KT 9999 FEW024 SCT045 08/01 Q1015 S (180°) 9.2mph 8°C 1°C
18/03/19 12:50 EGPA 181250Z 17008KT 140V200 9999 FEW025 08/01 Q1015 S (170°) 9.2mph 8°C 1°C
18/03/19 12:20 EGPA 181220Z 18008KT 9999 FEW025 07/01 Q1015 S (180°) 9.2mph 7°C 1°C
18/03/19 11:50 EGPA 181150Z 17008KT 9999 FEW025 08/01 Q1015 S (170°) 9.2mph 8°C 1°C
18/03/19 11:20 EGPA 181120Z 18006KT 150V230 9999 FEW025 08/01 Q1014 S (180°) 6.9mph 8°C 1°C
18/03/19 10:50 EGPA 181050Z 18006KT 150V210 9999 FEW022 07/M00 Q1014 S (180°) 6.9mph 7°C 0°C
18/03/19 10:20 EGPA 181020Z 19005KT 9999 FEW020 07/M01 Q1014 S (190°) 5.8mph 7°C -1°C
18/03/19 09:50 EGPA 180950Z 18005KT 9999 FEW020 07/M01 Q1014 S (180°) 5.8mph 7°C -1°C
18/03/19 09:20 EGPA 180920Z 15003KT 9999 FEW020 07/M02 Q1013 SSE (150°) 3.5mph 7°C -2°C
18/03/19 08:50 EGPA 180850Z 15002KT 9999 FEW020 06/M02 Q1013 SSE (150°) 2.3mph 6°C -2°C
18/03/19 08:20 EGPA 180820Z 17002KT 9999 FEW020 05/M01 Q1013 S (170°) 2.3mph 5°C -1°C
18/03/19 07:50 EGPA 180750Z 16002KT 9999 FEW020 04/00 Q1012 SSE (160°) 2.3mph 4°C 0°C
18/03/19 07:20 EGPA 180720Z 18001KT 9999 FEW020 02/M02 Q1012 S (180°) 1.2mph 2°C -2°C
18/03/19 06:50 EGPA 180650Z 22002KT 9999 FEW018 02/M02 Q1012 SW (220°) 2.3mph 2°C -2°C
18/03/19 06:20 EGPA 180620Z 25003KT 9999 FEW018 02/M03 Q1012 WSW (250°) 3.5mph 2°C -3°C
18/03/19 05:50 EGPA 180550Z AUTO 27004KT 9999 FEW045/// 02/M03 Q1011 W (270°) 4.6mph 2°C -3°C
18/03/19 05:20 EGPA 180520Z AUTO 26004KT 9999 BKN045/// 02/M02 Q1011 W (260°) 4.6mph 2°C -2°C
18/03/19 04:50 EGPA 180450Z AUTO 25005KT 9999 SCT048/// 01/M03 Q1011 WSW (250°) 5.8mph 1°C -3°C
18/03/19 04:20 EGPA 180420Z AUTO 27005KT 9999 NCD 01/M03 Q1010 W (270°) 5.8mph 1°C -3°C
18/03/19 03:20 EGPA 180320Z AUTO 31007KT 9999 BKN047/// 04/M02 Q1010 NW (310°) 8.1mph 4°C -2°C
18/03/19 02:50 EGPA 180250Z AUTO 31010KT 9999 BKN048/// 05/M03 Q1010 NW (310°) 11.5mph 5°C -3°C
18/03/19 02:20 EGPA 180220Z AUTO 30009KT 9999 OVC047/// 04/M03 Q1010 WNW (300°) 10.4mph 4°C -3°C
18/03/19 01:50 EGPA 180150Z AUTO 30010KT 9999 OVC048/// 04/M03 Q1010 WNW (300°) 11.5mph 4°C -3°C
18/03/19 01:20 EGPA 180120Z AUTO 31012KT 9999 OVC046/// 05/M03 Q1009 NW (310°) 13.8mph 5°C -3°C
18/03/19 00:50 EGPA 180050Z AUTO 31011KT 9999 OVC043/// 05/M02 Q1009 NW (310°) 12.7mph 5°C -2°C
18/03/19 00:20 EGPA 180020Z AUTO 34015KT 9999 OVC049/// 05/M02 Q1009 NNW (340°) 17.3mph 5°C -2°C
17/03/19 23:50 EGPA 172350Z AUTO 33012KT 9999 OVC043/// 05/M01 Q1009 NNW (330°) 13.8mph 5°C -1°C
17/03/19 23:20 EGPA 172320Z 34013KT 9999 BKN045 05/M01 Q1008 NNW (340°) 15.0mph 5°C -1°C
17/03/19 22:50 EGPA 172250Z 34013KT 9999 BKN045 05/M01 Q1008 NNW (340°) 15.0mph 5°C -1°C
17/03/19 22:20 EGPA 172220Z 34014KT 9999 OVC049 05/M01 Q1007 NNW (340°) 16.1mph 5°C -1°C
17/03/19 21:50 EGPA 172150Z 35018KT 9999 FEW048 05/M02 Q1007 N (350°) 20.7mph 5°C -2°C
17/03/19 21:20 EGPA 172120Z AUTO 34019KT 9999 NCD 05/M03 Q1007 NNW (340°) 21.9mph 5°C -3°C
17/03/19 20:50 EGPA 172050Z AUTO 35019KT 9999 NCD 05/M02 Q1007 N (350°) 21.9mph 5°C -2°C
17/03/19 20:20 EGPA 172020Z AUTO 36018KT 9999 NCD 05/M02 Q1006 N (360°) 20.7mph 5°C -2°C
17/03/19 19:50 EGPA 171950Z 34020KT 9999 FEW022 SCT032 06/M02 Q1006 NNW (340°) 23.0mph 6°C -2°C
17/03/19 19:20 EGPA 171920Z 34019KT 9999 VCSH FEW022 SCT032 05/M03 Q1005 VCSH NNW (340°) 21.9mph 5°C -3°C
17/03/19 18:50 EGPA 171850Z 34020KT 9999 VCSH FEW022 SCT032 06/M01 Q1004 VCSH NNW (340°) 23.0mph 6°C -1°C
17/03/19 18:20 EGPA 171820Z 34021KT 9999 VCSH FEW022 SCT032 05/M01 Q1004 VCSH NNW (340°) 24.2mph 5°C -1°C
17/03/19 17:50 EGPA 171750Z 34022KT 9999 VCSH FEW022 SCT032 06/00 Q1003 VCSH NNW (340°) 25.3mph 6°C 0°C
17/03/19 17:20 EGPA 171720Z 34024KT 9999 -SHRA FEW022 BKN032 06/01 Q1003 -SHRA NNW (340°) 27.6mph 6°C 1°C
17/03/19 16:50 EGPA 171650Z 34024KT 9999 VCSH FEW022 SCT034 06/M01 Q1002 VCSH NNW (340°) 27.6mph 6°C -1°C
17/03/19 16:20 EGPA 171620Z 34026KT 9999 VCSH FEW022 SCT034 06/M00 Q1001 VCSH NNW (340°) 29.9mph 6°C 0°C
17/03/19 15:50 EGPA 171550Z 34026KT 9999 FEW022 SCT034 06/M01 Q1000 NNW (340°) 29.9mph 6°C -1°C
17/03/19 15:20 EGPA 171520Z 35024KT 9999 FEW022 07/01 Q1000 N (350°) 27.6mph 7°C 1°C
17/03/19 14:50 EGPA 171450Z 35027KT 9999 FEW018 07/00 Q0999 N (350°) 31.1mph 7°C 0°C
17/03/19 14:20 EGPA 171420Z 35024KT 9999 VCSH FEW015 SCT022 07/01 Q0998 VCSH N (350°) 27.6mph 7°C 1°C
17/03/19 13:50 EGPA 171350Z 33026KT 9999 -SHRA FEW012 SCT022 05/01 Q0998 -SHRA NNW (330°) 29.9mph 5°C 1°C
17/03/19 13:20 EGPA 171320Z 35026G38KT 9999 VCSH FEW010 SCT029 06/01 Q0997 VCSH N (350°) 29.9mph 43.7mph 6°C 1°C
17/03/19 12:50 EGPA 171250Z 35029KT 9999 VCSH FEW010 SCT029 06/02 Q0996 VCSH N (350°) 33.4mph 6°C 2°C
17/03/19 12:20 EGPA 171220Z 35029KT 9999 VCSH FEW010 SCT029 07/01 Q0995 VCSH N (350°) 33.4mph 7°C 1°C
17/03/19 11:50 EGPA 171150Z 35029G39KT 9999 VCSH FEW010 06/02 Q0994 VCSH N (350°) 33.4mph 44.9mph 6°C 2°C
17/03/19 11:20 EGPA 171120Z 35027KT 9999 VCSH FEW010 06/02 Q0994 VCSH N (350°) 31.1mph 6°C 2°C
17/03/19 10:50 EGPA 171050Z 35027KT 9999 VCSH FEW010 SCT027 06/02 Q0993 VCSH N (350°) 31.1mph 6°C 2°C
17/03/19 10:20 EGPA 171020Z 35025KT 9999 VCSH FEW010 SCT027 06/02 Q0992 VCSH N (350°) 28.8mph 6°C 2°C
17/03/19 09:50 EGPA 170950Z 35023KT 9999 VCSH FEW010 SCT027 06/02 Q0991 VCSH N (350°) 26.5mph 6°C 2°C
17/03/19 09:20 EGPA 170920Z 35019KT 9999 VCSH FEW010 SCT027 05/02 Q0990 VCSH N (350°) 21.9mph 5°C 2°C
17/03/19 08:20 EGPA 170820Z 36015KT 9999 VCSH FEW010 SCT027 05/03 Q0989 VCSH N (360°) 17.3mph 5°C 3°C
17/03/19 07:50 EGPA 170750Z 36016KT 9999 VCSH FEW010 SCT027 05/03 Q0988 VCSH N (360°) 18.4mph 5°C 3°C
17/03/19 07:20 EGPA 170720Z AUTO 02018KT 9999 FEW014/// SCT022/// BKN029/// 05/03 Q0987 NNE (20°) 20.7mph 5°C 3°C
17/03/19 06:20 EGPA 170620Z AUTO 33010KT 9999 SCT019/// BKN030/// BKN039/// 05/03 Q0986 NNW (330°) 11.5mph 5°C 3°C
17/03/19 05:50 EGPA 170550Z AUTO 34015KT 9999 SCT010/// SCT018/// BKN025/// 04/03 Q0985 RERA NNW (340°) 17.3mph 4°C 3°C
17/03/19 04:50 EGPA 170450Z AUTO 32013KT 9999 FEW019/// 04/02 Q0984 NW (320°) 15.0mph 4°C 2°C
17/03/19 04:20 EGPA 170420Z AUTO 33015KT 9999 NCD 04/02 Q0984 NNW (330°) 17.3mph 4°C 2°C
17/03/19 03:50 EGPA 170350Z AUTO 33013KT 9999 FEW020/// SCT033/// 04/02 Q0984 NNW (330°) 15.0mph 4°C 2°C
17/03/19 03:20 EGPA 170320Z AUTO 31009KT 9999 NCD 03/02 Q0984 NW (310°) 10.4mph 3°C 2°C
17/03/19 02:50 EGPA 170250Z AUTO 32011KT 9999 FEW019/// 03/02 Q0983 NW (320°) 12.7mph 3°C 2°C
17/03/19 02:20 EGPA 170220Z AUTO 30011KT 9999 BKN010/// BKN014/// 03/02 Q0983 WNW (300°) 12.7mph 3°C 2°C
17/03/19 01:50 EGPA 170150Z AUTO 33008KT 9999 -RA BKN015/// OVC030/// 04/02 Q0983 -RA NNW (330°) 9.2mph 4°C 2°C
17/03/19 01:20 EGPA 170120Z AUTO 31007KT 9999 FEW013/// BKN019/// BKN024/// 03/02 Q0983 NW (310°) 8.1mph 3°C 2°C
17/03/19 00:50 EGPA 170050Z AUTO 30007KT 9999 BKN012/// BKN018/// 03/02 Q0983 WNW (300°) 8.1mph 3°C 2°C
17/03/19 00:20 EGPA 170020Z AUTO 30008KT 9999 SCT018/// BKN031/// 03/02 Q0983 WNW (300°) 9.2mph 3°C 2°C
16/03/19 23:50 EGPA 162350Z AUTO 32008KT 9999 FEW029/// BKN040/// 03/02 Q0983 NW (320°) 9.2mph 3°C 2°C
16/03/19 23:20 EGPA 162320Z AUTO 32010KT 9999 -RA SCT020/// BKN028/// 03/02 Q0983 -RA NW (320°) 11.5mph 3°C 2°C
16/03/19 22:50 EGPA 162250Z AUTO 31010KT 9999 -RA SCT010/// BKN020/// BKN029/// 02/01 Q0983 RERA -RA NW (310°) 11.5mph 2°C 1°C
16/03/19 22:20 EGPA 162220Z AUTO 31013KT 9999 -RA SCT011/// BKN016/// BKN030/// 03/02 Q0983 -RA NW (310°) 15.0mph 3°C 2°C
16/03/19 21:50 EGPA 162150Z AUTO 30010KT 9999 -RA SCT025/// BKN043/// 03/02 Q0983 -RA WNW (300°) 11.5mph 3°C 2°C
16/03/19 21:20 EGPA 162120Z AUTO 30009KT 9999 -RA FEW008/// BKN012/// BKN026/// 03/02 Q0983 -RA WNW (300°) 10.4mph 3°C 2°C
16/03/19 20:50 EGPA 162050Z AUTO 34007KT 9999 -RA SCT014/// SCT019/// BKN026/// 03/02 Q0983 -RA NNW (340°) 8.1mph 3°C 2°C
16/03/19 20:20 EGPA 162020Z AUTO 35008KT 9999 -RA FEW012/// SCT029/// BKN034/// 03/02 Q0984 -RA N (350°) 9.2mph 3°C 2°C
16/03/19 19:50 EGPA 161950Z AUTO 31005KT 9999 FEW013/// BKN020/// OVC046/// 02/01 Q0984 NW (310°) 5.8mph 2°C 1°C
16/03/19 19:20 EGPA 161920Z AUTO 32005KT 9999 -SN BKN006/// OVC021/// 02/01 Q0984 -SN NW (320°) 5.8mph 2°C 1°C
16/03/19 18:50 EGPA 161850Z AUTO 31009KT 9999 -RA SCT007/// BKN013/// BKN017/// 02/01 Q0984 RERA -RA NW (310°) 10.4mph 2°C 1°C
16/03/19 18:20 EGPA 161820Z AUTO 25002KT 9999 FEW018/// BKN023/// BKN028/// 03/01 Q0984 WSW (250°) 2.3mph 3°C 1°C
16/03/19 17:50 EGPA 161750Z AUTO 31008KT 9999 -RA SCT007/// BKN024/// BKN042/// 03/01 Q0984 -RA NW (310°) 9.2mph 3°C 1°C
16/03/19 17:20 EGPA 161720Z 31008KT 9999 -SHRA FEW007 BKN018 BKN032 03/01 Q0984 -SHRA NW (310°) 9.2mph 3°C 1°C
16/03/19 16:50 EGPA 161650Z 29007KT 9999 VCSH FEW008 SCT013 BKN022 03/01 Q0984 VCSH WNW (290°) 8.1mph 3°C 1°C
16/03/19 16:20 EGPA 161620Z 28004KT 240V310 9999 -SHRA FEW007 SCT013 BKN022 03/02 Q0985 -SHRA W (280°) 4.6mph 3°C 2°C
16/03/19 15:50 EGPA 161550Z 18007KT 150V230 9999 -SHRA FEW008 BKN019 04/02 Q0985 -SHRA S (180°) 8.1mph 4°C 2°C
16/03/19 15:20 EGPA 161520Z 26001KT 9999 VCSH SCT016 SCT035 06/01 Q0985 VCSH W (260°) 1.2mph 6°C 1°C
16/03/19 14:50 EGPA 161450Z VRB02KT 9999 VCSH SCT018 SCT035 06/01 Q0985 VCSH N (0°) 2.3mph 6°C 1°C
16/03/19 14:20 EGPA 161420Z 27002KT 9999 VCSH SCT018 06/01 Q0986 VCSH W (270°) 2.3mph 6°C 1°C
16/03/19 13:50 EGPA 161350Z VRB03KT 9999 FEW016 06/02 Q0986 N (0°) 3.5mph 6°C 2°C
16/03/19 13:20 EGPA 161320Z 22005KT 9999 FEW016 06/02 Q0987 SW (220°) 5.8mph 6°C 2°C
16/03/19 12:50 EGPA 161250Z 23005KT 9999 FEW016 06/02 Q0987 SW (230°) 5.8mph 6°C 2°C
16/03/19 12:20 EGPA 161220Z 22007KT 9999 FEW014 06/03 Q0988 SW (220°) 8.1mph 6°C 3°C
16/03/19 11:50 EGPA 161150Z 21007KT 9999 FEW014 06/02 Q0988 SSW (210°) 8.1mph 6°C 2°C
16/03/19 11:20 EGPA 161120Z 22008KT 9999 FEW014 05/03 Q0988 SW (220°) 9.2mph 5°C 3°C
16/03/19 10:50 EGPA 161050Z 22007KT 9999 FEW014 05/02 Q0989 SW (220°) 8.1mph 5°C 2°C
16/03/19 10:20 EGPA 161020Z 21007KT 9999 VCSH FEW010CB SCT035 05/03 Q0989 VCSH SSW (210°) 8.1mph 5°C 3°C
16/03/19 09:50 EGPA 160950Z 22003KT 9999 VCSH FEW010CB SCT035 04/02 Q0990 VCSH SW (220°) 3.5mph 4°C 2°C
16/03/19 09:20 EGPA 160920Z 23006KT 9999 -SHRA FEW010CB SCT014 BKN035 03/02 Q0990 -SHRA SW (230°) 6.9mph 3°C 2°C
16/03/19 08:50 EGPA 160850Z 23010KT 9999 -SHRA FEW014CB BKN038 04/02 Q0990 -SHRA SW (230°) 11.5mph 4°C 2°C
16/03/19 08:20 EGPA 160820Z 25004KT 9999 VCSH FEW012CB BKN038 04/02 Q0990 VCSH WSW (250°) 4.6mph 4°C 2°C
16/03/19 07:50 EGPA 160750Z 27006KT 9999 VCSH FEW011CB BKN030 04/02 Q0990 VCSH W (270°) 6.9mph 4°C 2°C
16/03/19 07:20 EGPA 160720Z 22005KT 8000 -SHRAGS SCT011CB BKN030 04/02 Q0991 -SHRA -SHGS SW (220°) 5.8mph 4°C 2°C
16/03/19 06:50 EGPA 160650Z 27009KT 9999 7000NW -SHRAGS SCT011CB BKN034 03/02 Q0991 -SHRA GS W (270°) 10.4mph 3°C 2°C
16/03/19 06:20 EGPA 160620Z 25009KT 9999 -SHRA SCT011 BKN034 04/02 Q0991 -SHRA WSW (250°) 10.4mph 4°C 2°C
16/03/19 05:50 EGPA 160550Z AUTO 27014KT 4000 -RA SCT003/// BKN008/// BKN012/// 03/02 Q0992 RERA -RA W (270°) 16.1mph 3°C 2°C
16/03/19 04:50 EGPA 160450Z AUTO 26015KT 9999 FEW026/// SCT032/// BKN048/// 05/02 Q0992 W (260°) 17.3mph 5°C 2°C
16/03/19 04:20 EGPA 160420Z AUTO 27013KT 9999 NCD 04/01 Q0991 W (270°) 15.0mph 4°C 1°C
16/03/19 03:50 EGPA 160350Z AUTO 26012KT 9999 FEW027/// 04/02 Q0992 W (260°) 13.8mph 4°C 2°C
16/03/19 02:50 EGPA 160250Z AUTO 27012KT 9999 NCD 04/02 Q0992 W (270°) 13.8mph 4°C 2°C
16/03/19 02:20 EGPA 160220Z AUTO 26015KT 9999 NCD 04/02 Q0992 W (260°) 17.3mph 4°C 2°C
16/03/19 01:50 EGPA 160150Z AUTO 27013KT 9999 NCD 04/02 Q0992 W (270°) 15.0mph 4°C 2°C
16/03/19 01:20 EGPA 160120Z AUTO 29018KT 9999 SCT026/// SCT040/// 04/02 Q0993 WNW (290°) 20.7mph 4°C 2°C
16/03/19 00:50 EGPA 160050Z AUTO 28013KT 9999 FEW046/// 04/02 Q0993 W (280°) 15.0mph 4°C 2°C
16/03/19 00:20 EGPA 160020Z AUTO 28018KT 9999 FEW025/// SCT038/// BKN047/// 05/01 Q0993 RERA W (280°) 20.7mph 5°C 1°C
15/03/19 23:20 EGPA 152320Z AUTO 28011KT 9999 SCT026/// SCT031/// 05/02 Q0993 W (280°) 12.7mph 5°C 2°C